createdAt,value
2019-04-22T00:00:34.549Z,12.40
2019-04-22T00:03:05.263Z,12.83
2019-04-22T00:05:58.914Z,11.70
2019-04-22T00:08:30.986Z,11.63
2019-04-22T00:11:06.363Z,13.27
2019-04-22T00:13:40.244Z,10.97
2019-04-22T00:15:59.342Z,12.00
2019-04-22T00:18:46.801Z,13.07
2019-04-22T00:21:04.745Z,13.03
2019-04-22T00:23:39.512Z,12.53
2019-04-22T00:26:12.742Z,12.20
2019-04-22T00:28:44.147Z,10.50
2019-04-22T00:31:25.417Z,11.07
2019-04-22T00:33:52.925Z,11.03
2019-04-22T00:36:24.051Z,11.47
2019-04-22T00:38:59.091Z,12.60
2019-04-22T00:41:28.623Z,12.73
2019-04-22T00:44:07.166Z,12.30
2019-04-22T00:46:33.212Z,12.20
2019-04-22T00:49:46.980Z,12.50
2019-04-22T00:51:36.903Z,16.60
2019-04-22T00:54:04.189Z,18.53
2019-04-22T00:56:39.497Z,16.63
2019-04-22T00:59:01.604Z,14.43
2019-04-22T01:01:39.792Z,13.00
2019-04-22T01:04:12.573Z,11.43
2019-04-22T01:06:39.410Z,12.17
2019-04-22T01:09:12.277Z,12.57
2019-04-22T01:11:37.089Z,11.97
2019-04-22T01:14:06.656Z,10.77
2019-04-22T01:16:43.128Z,12.50
2019-04-22T01:19:14.747Z,10.53
2019-04-22T01:21:45.163Z,9.20
2019-04-22T01:24:19.350Z,9.60
2019-04-22T01:26:40.486Z,9.83
2019-04-22T01:29:11.008Z,10.03
2019-04-22T01:31:33.079Z,10.10
2019-04-22T01:34:14.100Z,10.57
2019-04-22T01:36:55.459Z,10.43
2019-04-22T01:39:31.823Z,9.77
2019-04-22T01:42:06.242Z,9.47
2019-04-22T01:44:33.411Z,10.27
2019-04-22T01:47:04.887Z,9.23
2019-04-22T01:49:36.684Z,9.60
2019-04-22T01:52:05.029Z,8.93
2019-04-22T01:54:41.095Z,9.53
2019-04-22T01:57:03.436Z,8.47
2019-04-22T01:59:31.849Z,8.83
2019-04-22T02:02:11.186Z,9.23
2019-04-22T02:04:44.471Z,9.57
2019-04-22T02:07:16.540Z,8.83
2019-04-22T02:09:42.794Z,8.90
2019-04-22T02:15:13.821Z,9.00
2019-04-22T02:17:26.580Z,8.97
2019-04-22T02:19:59.159Z,8.27
2019-04-22T02:22:38.308Z,8.43
2019-04-22T02:24:55.346Z,8.70
2019-04-22T02:27:35.173Z,9.10
2019-04-22T02:29:51.825Z,8.43
2019-04-22T02:35:03.418Z,9.47
2019-04-22T02:37:32.115Z,8.57
2019-04-22T02:40:12.206Z,8.60
2019-04-22T02:42:32.332Z,9.13
2019-04-22T02:45:04.616Z,9.33
2019-04-22T02:47:34.162Z,9.83
2019-04-22T02:50:08.872Z,9.27
2019-04-22T02:52:37.996Z,9.57
2019-04-22T02:55:18.035Z,8.67
2019-04-22T02:57:39.305Z,9.53
2019-04-22T03:00:21.675Z,9.50
2019-04-22T03:05:19.414Z,9.43
2019-04-22T03:07:56.006Z,9.77
2019-04-22T03:10:18.776Z,9.07
2019-04-22T03:13:09.014Z,10.43
2019-04-22T03:15:11.652Z,9.53
2019-04-22T03:17:52.060Z,10.10
2019-04-22T03:20:24.315Z,8.67
2019-04-22T03:25:51.476Z,9.03
2019-04-22T03:27:50.556Z,7.40
2019-04-22T03:33:11.203Z,7.27
2019-04-22T03:37:55.766Z,6.83
2019-04-22T03:40:54.935Z,6.87
2019-04-22T03:45:31.844Z,7.40
2019-04-22T03:48:07.225Z,7.57
2019-04-22T03:50:58.521Z,7.63
2019-04-22T03:53:14.984Z,8.30
2019-04-22T03:55:46.746Z,8.20
2019-04-22T03:58:11.044Z,8.43
2019-04-22T04:00:49.699Z,9.17
2019-04-22T04:03:11.731Z,8.53
2019-04-22T04:08:35.721Z,7.07
2019-04-22T04:10:48.407Z,8.33
2019-04-22T04:15:46.205Z,8.27
2019-04-22T04:18:19.226Z,7.37
2019-04-22T04:25:52.035Z,6.43
2019-04-22T04:30:59.859Z,6.87
2019-04-22T04:36:03.524Z,6.07
2019-04-22T04:38:38.811Z,5.97
2019-04-22T04:41:20.002Z,5.83
2019-04-22T04:43:50.515Z,6.80
2019-04-22T04:46:18.957Z,6.40
2019-04-22T04:48:55.461Z,6.53
2019-04-22T04:51:20.002Z,6.00
2019-04-22T04:53:52.739Z,6.60
2019-04-22T05:04:04.596Z,5.80
2019-04-22T05:06:22.379Z,6.03
2019-04-22T05:11:32.200Z,6.17
2019-04-22T05:16:43.033Z,5.00
2019-04-22T05:18:54.698Z,5.57
2019-04-22T05:21:22.320Z,5.63
2019-04-22T05:24:00.981Z,5.70
2019-04-22T05:26:27.721Z,5.63
2019-04-22T05:28:51.668Z,6.23
2019-04-22T05:31:28.709Z,5.30
2019-04-22T05:33:56.851Z,5.50
2019-04-22T05:36:28.206Z,5.10
2019-04-22T05:39:01.925Z,5.10
2019-04-22T05:41:32.281Z,5.27
2019-04-22T05:44:02.784Z,5.30
2019-04-22T05:46:33.070Z,5.70
2019-04-22T05:49:09.945Z,5.03
2019-04-22T05:51:37.033Z,5.00
2019-04-22T05:54:13.095Z,4.73
2019-04-22T05:56:37.197Z,5.40
2019-04-22T06:01:45.670Z,5.30
2019-04-22T06:04:11.554Z,5.60
2019-04-22T06:06:36.980Z,5.40
2019-04-22T06:09:12.053Z,5.00
2019-04-22T06:11:34.015Z,5.33
2019-04-22T06:14:14.974Z,5.67
2019-04-22T06:16:51.496Z,5.33
2019-04-22T06:19:18.543Z,5.60
2019-04-22T06:21:50.176Z,5.20
2019-04-22T06:24:49.468Z,5.83
2019-04-22T06:27:04.569Z,5.87
2019-04-22T06:29:26.721Z,5.43
2019-04-22T06:32:22.383Z,5.03
2019-04-22T06:34:28.886Z,5.17
2019-04-22T06:39:44.806Z,8.73
2019-04-22T06:42:07.948Z,8.80
2019-04-22T06:44:36.511Z,8.37
2019-04-22T06:47:10.555Z,8.10
2019-04-22T06:49:35.403Z,8.60
2019-04-22T06:52:17.043Z,7.50
2019-04-22T06:54:42.438Z,7.23
2019-04-22T06:57:05.897Z,7.63
2019-04-22T06:59:44.048Z,7.77
2019-04-22T07:02:18.104Z,6.57
2019-04-22T07:04:43.028Z,6.83
2019-04-22T07:07:12.814Z,6.83
2019-04-22T07:09:49.328Z,7.13
2019-04-22T07:12:20.705Z,6.90
2019-04-22T07:14:48.419Z,6.90
2019-04-22T07:17:22.175Z,7.07
2019-04-22T07:20:04.139Z,6.77
2019-04-22T07:22:21.562Z,6.83
2019-04-22T07:24:56.185Z,6.50
2019-04-22T07:27:25.585Z,6.47
2019-04-22T07:32:40.018Z,6.57
2019-04-22T07:35:01.069Z,5.67
2019-04-22T07:37:38.849Z,5.57
2019-04-22T07:39:58.322Z,5.37
2019-04-22T07:42:32.703Z,5.90
2019-04-22T07:45:04.965Z,5.87
2019-04-22T07:50:08.384Z,5.40
2019-04-22T07:52:33.424Z,5.80
2019-04-22T07:55:02.140Z,6.07
2019-04-22T07:57:36.538Z,6.20
2019-04-22T08:00:16.036Z,5.53
2019-04-22T08:02:46.698Z,6.47
2019-04-22T08:05:16.861Z,5.70
2019-04-22T08:07:45.406Z,5.90
2019-04-22T08:10:23.831Z,6.23
2019-04-22T08:12:47.483Z,6.33
2019-04-22T08:15:12.936Z,6.10
2019-04-22T08:17:57.854Z,6.57
2019-04-22T08:20:25.265Z,6.20
2019-04-22T08:22:52.226Z,5.20
2019-04-22T08:25:16.725Z,5.12
2019-04-22T08:27:50.461Z,4.75
2019-04-22T08:30:28.955Z,4.72
2019-04-22T08:32:52.737Z,4.53
2019-04-22T08:38:11.405Z,3.52
2019-04-22T08:40:36.324Z,3.45
2019-04-22T08:43:05.309Z,3.42
2019-04-22T08:45:38.777Z,3.27
2019-04-22T08:48:01.024Z,3.47
2019-04-22T08:50:42.524Z,3.42
2019-04-22T08:53:10.913Z,2.87
2019-04-22T08:55:52.184Z,3.02
2019-04-22T08:58:25.188Z,2.87
2019-04-22T09:00:52.834Z,3.52
2019-04-22T09:03:18.831Z,3.60
2019-04-22T09:05:57.719Z,3.00
2019-04-22T09:08:19.145Z,3.52
2019-04-22T09:10:51.942Z,3.67
2019-04-22T09:13:20.274Z,3.37
2019-04-22T09:15:49.626Z,3.33
2019-04-22T09:18:21.764Z,3.70
2019-04-22T09:21:04.758Z,3.52
2019-04-22T09:23:30.218Z,3.37
2019-04-22T09:25:53.213Z,3.58
2019-04-22T09:28:33.236Z,3.27
2019-04-22T09:31:02.136Z,3.98
2019-04-22T09:33:32.012Z,3.87
2019-04-22T09:36:08.922Z,3.60
2019-04-22T09:41:10.368Z,3.52
2019-04-22T09:43:42.036Z,3.80
2019-04-22T09:46:06.568Z,4.15
2019-04-22T09:48:43.468Z,3.80
2019-04-22T09:51:05.623Z,4.42
2019-04-22T09:53:49.764Z,3.65
2019-04-22T09:56:10.178Z,3.47
2019-04-22T09:58:44.750Z,4.17
2019-04-22T10:03:56.178Z,3.80
2019-04-22T10:09:12.687Z,3.50
2019-04-22T10:11:26.947Z,3.90
2019-04-22T10:14:03.814Z,3.67
2019-04-22T10:19:01.002Z,3.60
2019-04-22T10:21:35.358Z,4.15
2019-04-22T10:24:00.213Z,4.47
2019-04-22T10:26:33.404Z,5.22
2019-04-22T10:33:53.718Z,5.25
2019-04-22T10:36:09.797Z,4.97
2019-04-22T10:38:40.433Z,6.05
2019-04-22T10:41:10.437Z,4.85
2019-04-22T10:43:41.205Z,4.70
2019-04-22T10:46:13.883Z,4.97
2019-04-22T10:48:44.244Z,4.67
2019-04-22T10:51:14.838Z,4.60
2019-04-22T10:53:44.448Z,4.35
2019-04-22T10:56:14.842Z,4.62
2019-04-22T10:58:44.753Z,4.00
2019-04-22T11:01:15.768Z,4.03
2019-04-22T11:03:45.666Z,4.08
2019-04-22T11:06:17.033Z,3.52
2019-04-22T11:08:53.996Z,3.77
2019-04-22T11:11:30.082Z,3.80
2019-04-22T11:13:49.601Z,3.70
2019-04-22T11:16:19.490Z,3.55
2019-04-22T11:18:49.594Z,3.10
2019-04-22T11:21:19.899Z,3.55
2019-04-22T11:23:50.399Z,4.05
2019-04-22T11:26:21.788Z,4.12
2019-04-22T11:28:51.964Z,3.80
2019-04-22T11:31:21.508Z,4.00
2019-04-22T11:33:52.354Z,4.80
2019-04-22T11:36:22.040Z,3.87
2019-04-22T11:38:56.476Z,4.00
2019-04-22T11:41:23.555Z,4.40
2019-04-22T11:43:53.583Z,4.30
2019-04-22T11:46:23.542Z,3.95
2019-04-22T11:48:54.111Z,4.12
2019-04-22T11:51:24.347Z,4.03
2019-04-22T11:53:54.740Z,4.00
2019-04-22T11:56:25.255Z,4.83
2019-04-22T11:58:55.203Z,4.28
2019-04-22T12:01:24.719Z,4.83
2019-04-22T12:03:55.817Z,4.95
2019-04-22T12:06:26.365Z,5.15
2019-04-22T12:08:57.421Z,4.70
2019-04-22T12:11:28.218Z,5.92
2019-04-22T12:13:57.957Z,5.70
2019-04-22T12:16:27.596Z,5.65
2019-04-22T12:18:58.516Z,5.67
2019-04-22T12:21:29.006Z,5.58
2019-04-22T12:23:59.177Z,5.78
2019-04-22T12:26:30.454Z,6.83
2019-04-22T12:29:00.321Z,6.28
2019-04-22T12:31:31.376Z,5.97
2019-04-22T12:34:01.448Z,6.15
2019-04-22T12:36:31.119Z,6.15
2019-04-22T12:39:00.646Z,5.35
2019-04-22T12:41:31.790Z,5.85
2019-04-22T12:44:01.420Z,5.25
2019-04-22T12:46:32.179Z,5.87
2019-04-22T12:49:02.359Z,6.17
2019-04-22T12:51:33.193Z,5.95
2019-04-22T12:54:03.352Z,5.90
2019-04-22T12:56:33.440Z,4.83
2019-04-22T12:59:03.828Z,5.10
2019-04-22T13:01:33.426Z,5.80
2019-04-22T13:04:07.790Z,5.35
2019-04-22T13:06:35.410Z,4.70
2019-04-22T13:09:08.649Z,5.17
2019-04-22T13:11:38.893Z,5.33
2019-04-22T13:14:10.620Z,5.42
2019-04-22T13:16:40.859Z,4.70
2019-04-22T13:19:13.154Z,4.50
2019-04-22T13:21:42.747Z,4.35
2019-04-22T13:24:13.459Z,5.22
2019-04-22T13:26:43.125Z,4.97
2019-04-22T13:29:12.899Z,5.22
2019-04-22T13:31:42.589Z,4.62
2019-04-22T13:34:21.343Z,4.50
2019-04-22T13:36:46.276Z,4.80
2019-04-22T13:39:14.387Z,4.17
2019-04-22T13:41:49.754Z,4.95
2019-04-22T13:44:15.115Z,5.00
2019-04-22T13:47:02.127Z,4.78
2019-04-22T13:49:54.151Z,4.50
2019-04-22T13:52:21.043Z,5.20
2019-04-22T13:54:48.656Z,5.00
2019-04-22T13:57:09.024Z,4.20
2019-04-22T13:59:28.905Z,4.30
2019-04-22T14:01:58.798Z,4.25
2019-04-22T14:04:30.434Z,4.33
2019-04-22T14:07:00.884Z,4.22
2019-04-22T14:09:33.661Z,4.42
2019-04-22T14:12:05.832Z,4.75
2019-04-22T14:14:33.885Z,4.40
2019-04-22T14:17:04.836Z,4.28
2019-04-22T14:19:35.983Z,4.12
2019-04-22T14:22:05.675Z,3.80
2019-04-22T14:24:36.441Z,4.22
2019-04-22T14:27:22.365Z,3.90
2019-04-22T14:29:38.087Z,4.03
2019-04-22T14:32:16.616Z,3.62
2019-04-22T14:34:38.609Z,3.72
2019-04-22T14:37:08.140Z,3.65
2019-04-22T14:39:38.008Z,2.83
2019-04-22T14:42:28.403Z,3.25
2019-04-22T14:45:18.967Z,3.50
2019-04-22T14:47:34.513Z,3.27
2019-04-22T14:50:07.647Z,3.62
2019-04-22T14:52:34.553Z,3.15
2019-04-22T14:54:55.467Z,3.10
2019-04-22T14:57:16.919Z,3.27
2019-04-22T14:59:48.166Z,3.58
2019-04-22T15:02:19.574Z,3.15
2019-04-22T15:04:50.091Z,3.52
2019-04-22T15:07:20.998Z,2.90
2019-04-22T15:09:50.578Z,3.02
2019-04-22T15:12:30.023Z,2.92
2019-04-22T15:14:51.292Z,3.45
2019-04-22T15:17:38.837Z,2.90
2019-04-22T15:20:19.672Z,3.67
2019-04-22T15:22:50.528Z,3.60
2019-04-22T15:25:20.711Z,2.80
2019-04-22T15:27:51.165Z,3.52
2019-04-22T15:30:21.428Z,3.70
2019-04-22T15:32:51.602Z,3.72
2019-04-22T15:35:22.998Z,3.52
2019-04-22T15:37:53.017Z,3.05
2019-04-22T15:40:22.790Z,3.33
2019-04-22T15:42:52.964Z,2.83
2019-04-22T15:45:24.292Z,2.60
2019-04-22T15:47:53.880Z,2.40
2019-04-22T15:50:24.538Z,2.22
2019-04-22T15:52:57.065Z,2.10
2019-04-22T15:55:27.124Z,2.08
2019-04-22T15:57:57.616Z,2.12
2019-04-22T16:00:41.492Z,2.12
2019-04-22T16:02:59.716Z,2.00
2019-04-22T16:05:30.335Z,2.02
2019-04-22T16:08:01.315Z,2.37
2019-04-22T16:10:30.886Z,2.15
2019-04-22T16:13:09.362Z,2.65
2019-04-22T16:15:34.241Z,2.55
2019-04-22T16:18:06.449Z,2.00
2019-04-22T16:20:36.334Z,2.65
2019-04-22T16:23:13.505Z,2.52
2019-04-22T16:25:57.074Z,1.90
2019-04-22T16:28:27.040Z,2.65
2019-04-22T16:30:57.655Z,2.20
2019-04-22T16:33:27.739Z,2.20
2019-04-22T16:35:58.784Z,2.40
2019-04-22T16:38:28.934Z,2.30
2019-04-22T16:40:58.861Z,2.40
2019-04-22T16:43:28.766Z,2.45
2019-04-22T16:45:58.506Z,2.22
2019-04-22T16:48:29.545Z,2.40
2019-04-22T16:51:00.193Z,2.33
2019-04-22T16:53:31.397Z,1.87
2019-04-22T16:56:02.591Z,2.40
2019-04-22T16:58:32.737Z,2.47
2019-04-22T17:01:03.084Z,2.52
2019-04-22T17:03:50.662Z,2.15
2019-04-22T17:06:21.767Z,1.90
2019-04-22T17:08:52.780Z,1.70
2019-04-22T17:11:22.445Z,1.85
2019-04-22T17:13:53.076Z,1.77
2019-04-22T17:16:24.196Z,1.82
2019-04-22T17:18:54.278Z,1.80
2019-04-22T17:21:25.873Z,1.80
2019-04-22T17:23:55.953Z,1.80
2019-04-22T17:26:26.471Z,1.95
2019-04-22T17:28:58.066Z,1.55
2019-04-22T17:31:28.977Z,1.67
2019-04-22T17:33:59.053Z,1.90
2019-04-22T17:36:29.803Z,1.45
2019-04-22T17:39:15.776Z,1.67
2019-04-22T17:41:51.184Z,1.80
2019-04-22T17:44:39.966Z,1.60
2019-04-22T17:47:16.391Z,2.85
2019-04-22T17:50:05.036Z,1.67
2019-04-22T17:52:33.352Z,1.35
2019-04-22T17:54:56.173Z,1.92
2019-04-22T17:57:32.562Z,1.80
2019-04-22T18:00:06.165Z,1.45
2019-04-22T18:03:03.154Z,1.45
2019-04-22T18:05:18.273Z,1.12
2019-04-22T18:08:10.054Z,1.57
2019-04-22T18:10:36.215Z,1.37
2019-04-22T18:13:14.098Z,1.50
2019-04-22T18:15:43.565Z,2.02
2019-04-22T18:18:12.321Z,1.40
2019-04-22T18:20:35.027Z,1.57
2019-04-22T18:23:02.664Z,1.33
2019-04-22T18:25:44.993Z,2.12
2019-04-22T18:28:17.589Z,1.40
2019-04-22T18:30:38.331Z,1.45
2019-04-22T18:33:22.905Z,1.35
2019-04-22T18:35:46.864Z,1.53
2019-04-22T18:38:33.359Z,1.47
2019-04-22T18:40:50.626Z,1.30
2019-04-22T18:43:27.728Z,1.40
2019-04-22T18:46:00.352Z,1.30
2019-04-22T18:48:17.711Z,1.80
2019-04-22T18:51:20.245Z,1.70
2019-04-22T18:54:01.970Z,1.80
2019-04-22T18:56:34.364Z,1.63
2019-04-22T18:58:56.756Z,1.50
2019-04-22T19:01:18.122Z,1.90
2019-04-22T19:03:58.233Z,1.73
2019-04-22T19:06:56.915Z,1.77
2019-04-22T19:09:17.193Z,2.00
2019-04-22T19:11:59.408Z,2.27
2019-04-22T19:14:33.543Z,2.40
2019-04-22T19:16:44.346Z,2.10
2019-04-22T19:19:30.449Z,1.80
2019-04-22T19:21:47.711Z,1.80
2019-04-22T19:24:17.274Z,2.30
2019-04-22T19:26:55.955Z,2.53
2019-04-22T19:29:22.294Z,2.30
2019-04-22T19:31:52.337Z,1.90
2019-04-22T19:34:20.866Z,1.93
2019-04-22T19:36:57.277Z,2.40
2019-04-22T19:39:22.801Z,2.33
2019-04-22T19:42:00.886Z,2.20
2019-04-22T19:44:30.890Z,2.07
2019-04-22T19:47:21.416Z,2.40
2019-04-22T19:49:38.326Z,2.10
2019-04-22T19:52:27.503Z,2.30
2019-04-22T19:54:38.345Z,2.50
2019-04-22T19:56:59.011Z,2.37
2019-04-22T19:59:32.361Z,2.37
2019-04-22T20:02:07.390Z,2.00
2019-04-22T20:04:52.473Z,2.10
2019-04-22T20:07:17.819Z,2.20
2019-04-22T20:09:53.518Z,2.07
2019-04-22T20:12:21.326Z,2.03
2019-04-22T20:14:49.529Z,1.90
2019-04-22T20:17:26.580Z,2.27
2019-04-22T20:20:04.675Z,1.80
2019-04-22T20:22:28.322Z,2.23
2019-04-22T20:24:47.142Z,2.00
2019-04-22T20:27:31.710Z,1.93
2019-04-22T20:30:04.618Z,1.90
2019-04-22T20:32:32.369Z,1.90
2019-04-22T20:35:05.958Z,2.13
2019-04-22T20:37:38.582Z,2.00
2019-04-22T20:40:08.583Z,1.87
2019-04-22T20:42:43.546Z,1.90
2019-04-22T20:45:13.248Z,1.63
2019-04-22T20:47:34.399Z,1.83
2019-04-22T20:50:12.187Z,1.70
2019-04-22T20:52:50.356Z,2.10
2019-04-22T20:55:09.304Z,2.30
2019-04-22T20:57:49.749Z,1.80
2019-04-22T21:00:11.595Z,2.00
2019-04-22T21:02:38.808Z,2.10
2019-04-22T21:05:02.829Z,1.87
2019-04-22T21:07:47.968Z,2.03
2019-04-22T21:10:17.233Z,1.90
2019-04-22T21:12:38.694Z,2.60
2019-04-22T21:15:26.483Z,2.47
2019-04-22T21:17:50.963Z,2.37
2019-04-22T21:20:42.883Z,2.20
2019-04-22T21:22:58.254Z,2.30
2019-04-22T21:25:20.903Z,2.27
2019-04-22T21:27:57.993Z,1.80
2019-04-22T21:30:34.998Z,2.17
2019-04-22T21:32:58.303Z,2.27
2019-04-22T21:35:47.248Z,2.60
2019-04-22T21:38:08.418Z,2.40
2019-04-22T21:40:37.590Z,2.20
2019-04-22T21:43:10.705Z,2.97
2019-04-22T21:45:27.598Z,2.50
2019-04-22T21:48:20.139Z,3.03
2019-04-22T21:50:50.183Z,2.97
2019-04-22T21:53:14.575Z,2.27
2019-04-22T21:55:43.663Z,2.73
2019-04-22T21:58:20.963Z,2.73
2019-04-22T22:01:00.826Z,3.13
2019-04-22T22:03:26.562Z,2.60
2019-04-22T22:05:46.283Z,2.80
2019-04-22T22:08:30.176Z,2.77
2019-04-22T22:10:57.965Z,3.20
2019-04-22T22:13:29.992Z,3.00
2019-04-22T22:15:56.277Z,3.40
2019-04-22T22:18:23.476Z,2.90
2019-04-22T22:21:19.378Z,2.87
2019-04-22T22:23:49.394Z,3.30
2019-04-22T22:25:57.087Z,2.93
2019-04-22T22:31:08.260Z,2.97
2019-04-22T22:33:40.155Z,3.30
2019-04-22T22:36:07.129Z,3.33
2019-04-22T22:38:38.900Z,3.30
2019-04-22T22:40:50.113Z,3.60
2019-04-22T22:43:27.787Z,3.07
2019-04-22T22:46:05.932Z,3.73
2019-04-22T22:48:43.353Z,3.47
2019-04-22T22:51:23.155Z,3.23
2019-04-22T22:54:06.324Z,3.33
2019-04-22T22:56:19.180Z,3.40
2019-04-22T22:58:52.385Z,3.60
2019-04-22T23:01:28.563Z,3.57
2019-04-22T23:03:55.953Z,3.27
2019-04-22T23:06:26.181Z,3.67
2019-04-22T23:08:56.040Z,4.10
2019-04-22T23:11:46.576Z,3.40
2019-04-22T23:13:56.958Z,3.40
2019-04-22T23:16:18.225Z,3.87
2019-04-22T23:18:39.507Z,3.30
2019-04-22T23:21:22.326Z,3.00
2019-04-22T23:24:02.088Z,3.33
2019-04-22T23:26:37.112Z,3.50
2019-04-22T23:29:10.389Z,3.77
2019-04-22T23:31:44.284Z,3.73
2019-04-22T23:34:37.020Z,4.00
2019-04-22T23:37:07.333Z,4.30
2019-04-22T23:39:51.527Z,3.47
2019-04-22T23:42:19.305Z,4.17
2019-04-22T23:44:42.341Z,4.30
2019-04-22T23:47:13.780Z,4.00
2019-04-22T23:49:43.020Z,3.80
2019-04-22T23:52:35.757Z,4.00
2019-04-22T23:54:58.769Z,3.93
2019-04-22T23:57:29.242Z,4.00
2019-04-22T23:59:56.650Z,3.43
